Time;durP1;ratioP1;P1;durP2;ratioP2;P2;SDS_P1;SDS_P2;PMS_P1;PMS_P2;Temp;Humidity;BMP_temperature;BMP_pressure;BME280_temperature;BME280_humidity;BME280_pressure;Samples;Min_cycle;Max_cycle;Signal;HPM_P1;HPM_P2
2021/03/24 00:02:17;;;;;;;66.13;31.87;;;9.50;69.40;;;;;;5081104;28;20211;-79
2021/03/24 00:04:43;;;;;;;54.77;30.77;;;9.60;68.90;;;;;;5077374;28;20208;-79
2021/03/24 00:07:09;;;;;;;70.23;33.10;;;9.70;68.60;;;;;;5083178;28;20805;-80
2021/03/24 00:09:35;;;;;;;69.13;33.10;;;9.50;68.60;;;;;;5074118;28;20415;-80
2021/03/24 00:12:00;;;;;;;67.97;33.23;;;9.40;68.70;;;;;;5074312;28;20203;-80
2021/03/24 00:14:26;;;;;;;61.40;31.03;;;9.30;68.80;;;;;;5074555;28;20529;-79
2021/03/24 00:16:52;;;;;;;62.73;31.90;;;9.50;69.00;;;;;;5074299;28;20934;-79
2021/03/24 00:19:18;;;;;;;53.40;29.03;;;9.40;68.80;;;;;;5076719;28;20177;-79
2021/03/24 00:21:43;;;;;;;70.23;33.30;;;9.20;68.90;;;;;;5085634;28;20527;-79
2021/03/24 00:24:09;;;;;;;61.70;31.00;;;9.50;69.10;;;;;;5088430;28;20470;-78
2021/03/24 00:26:35;;;;;;;67.37;30.30;;;9.60;68.70;;;;;;5091806;28;20285;-80
2021/03/24 00:29:01;;;;;;;69.13;30.57;;;9.60;68.30;;;;;;5096284;28;20431;-80
2021/03/24 00:31:27;;;;;;;65.68;31.58;;;9.60;68.20;;;;;;5091897;28;20344;-80
2021/03/24 00:33:53;;;;;;;63.60;31.37;;;9.50;68.30;;;;;;5096452;28;20233;-79
2021/03/24 00:36:18;;;;;;;69.87;31.50;;;9.50;68.40;;;;;;5096849;28;20187;-80
2021/03/24 00:38:45;;;;;;;73.50;31.90;;;9.30;68.50;;;;;;5084398;28;20184;-80
2021/03/24 00:41:11;;;;;;;64.32;31.77;;;9.30;69.00;;;;;;5086663;28;20411;-80
2021/03/24 00:43:36;;;;;;;59.60;32.75;;;9.50;68.90;;;;;;5074895;28;20219;-80
2021/03/24 00:46:02;;;;;;;63.50;33.23;;;9.50;68.60;;;;;;5074278;28;20173;-79
2021/03/24 00:48:31;;;;;;;63.33;30.43;;;9.40;68.70;;;;;;5074257;28;20169;-79
2021/03/24 00:50:58;;;;;;;78.07;34.33;;;9.30;68.90;;;;;;5074083;28;20329;-80
2021/03/24 00:53:24;;;;;;;65.25;32.15;;;9.50;69.00;;;;;;5073356;28;20672;-80
2021/03/24 00:55:51;;;;;;;66.35;32.88;;;9.50;68.50;;;;;;5073658;28;20200;-80
2021/03/24 00:58:18;;;;;;;64.82;31.05;;;9.50;68.40;;;;;;5074670;28;20176;-80
2021/03/24 01:00:44;;;;;;;68.35;31.98;;;9.40;68.30;;;;;;5075025;28;20185;-80
2021/03/24 01:03:10;;;;;;;74.53;31.77;;;9.50;68.50;;;;;;5073030;28;20204;-80
2021/03/24 01:05:37;;;;;;;62.78;30.23;;;9.50;68.50;;;;;;5078089;28;20310;-79
2021/03/24 01:08:22;;;;;;;62.75;31.15;;;9.40;68.50;;;;;;5064025;28;20622;-80
2021/03/24 01:10:52;;;;;;;61.88;28.45;;;9.20;68.70;;;;;;5056546;28;20612;-80
2021/03/24 01:13:19;;;;;;;92.45;31.40;;;9.20;68.80;;;;;;5058174;28;20200;-80
2021/03/24 01:15:45;;;;;;;68.78;31.27;;;9.10;69.00;;;;;;5053457;28;20242;-80
2021/03/24 01:18:11;;;;;;;70.85;30.83;;;9.00;69.30;;;;;;5052868;28;20189;-79
2021/03/24 01:20:39;;;;;;;68.33;31.60;;;8.80;69.60;;;;;;5052636;28;20173;-79
2021/03/24 01:23:08;;;;;;;67.20;31.73;;;8.80;69.90;;;;;;5052496;28;20431;-79
2021/03/24 01:25:34;;;;;;;76.90;31.30;;;8.90;70.00;;;;;;5052680;28;20493;-81
2021/03/24 01:28:00;;;;;;;77.38;33.80;;;9.00;69.90;;;;;;5057169;28;20230;-80
2021/03/24 01:30:30;;;;;;;70.30;30.70;;;9.20;69.40;;;;;;5062356;28;20621;-80
2021/03/24 01:32:57;;;;;;;66.95;32.45;;;9.00;69.20;;;;;;5055173;28;20216;-81
2021/03/24 01:35:23;;;;;;;74.90;31.85;;;8.90;69.20;;;;;;5054902;28;20230;-80
2021/03/24 01:37:49;;;;;;;72.60;33.55;;;8.80;69.70;;;;;;5057368;28;20183;-80
2021/03/24 01:40:25;;;;;;;81.47;35.50;;;9.00;69.70;;;;;;5072631;28;20188;-80
2021/03/24 01:42:53;;;;;;;71.93;33.55;;;9.00;69.50;;;;;;5070528;28;20720;-80
2021/03/24 01:45:19;;;;;;;69.63;34.35;;;9.10;69.30;;;;;;5072324;28;20683;-80
2021/03/24 01:47:46;;;;;;;77.25;32.45;;;9.00;69.10;;;;;;5071281;28;20228;-81
2021/03/24 01:50:21;;;;;;;85.05;34.08;;;9.00;69.20;;;;;;5072149;28;20184;-80
2021/03/24 01:52:47;;;;;;;78.40;35.03;;;8.80;69.10;;;;;;5070885;28;20291;-80
2021/03/24 01:55:14;;;;;;;78.03;35.33;;;8.50;69.60;;;;;;5069290;28;20333;-79
2021/03/24 01:57:45;;;;;;;67.93;33.25;;;8.30;70.20;;;;;;5072173;28;20834;-79
2021/03/24 02:00:19;;;;;;;85.22;33.03;;;8.30;70.60;;;;;;5073824;28;20180;-79
2021/03/24 02:02:44;;;;;;;62.67;29.75;;;8.30;71.60;;;;;;5071760;28;20200;-79
2021/03/24 02:05:10;;;;;;;76.40;31.87;;;8.30;71.10;;;;;;5072652;28;20257;-80
2021/03/24 02:07:47;;;;;;;75.10;34.05;;;8.10;71.90;;;;;;5073988;28;20414;-79
2021/03/24 02:10:37;;;;;;;72.38;32.13;;;8.10;71.40;;;;;;5073184;28;20516;-79
2021/03/24 02:13:25;;;;;;;69.70;33.97;;;8.10;71.70;;;;;;5062733;28;20205;-79
2021/03/24 02:15:58;;;;;;;67.78;31.95;;;8.30;71.60;;;;;;5071978;28;20726;-81
2021/03/24 02:18:26;;;;;;;67.70;31.38;;;8.50;71.10;;;;;;5072588;28;20173;-81
2021/03/24 02:21:06;;;;;;;66.03;32.92;;;8.40;70.80;;;;;;5072403;28;20206;-81
2021/03/24 02:23:36;;;;;;;71.10;32.67;;;8.40;70.70;;;;;;5074417;28;20510;-81
2021/03/24 02:26:20;;;;;;;79.07;32.03;;;8.60;70.70;;;;;;5077599;28;20203;-81
2021/03/24 02:28:48;;;;;;;78.95;33.78;;;8.70;70.30;;;;;;5078275;28;20532;-81
2021/03/24 02:31:17;;;;;;;82.10;35.17;;;8.80;69.70;;;;;;5053425;28;20618;-81
2021/03/24 02:33:45;;;;;;;82.88;34.85;;;8.80;69.40;;;;;;5056775;28;20182;-81
2021/03/24 02:36:17;;;;;;;70.70;31.63;;;8.70;69.20;;;;;;5053890;28;20261;-81
2021/03/24 02:38:47;;;;;;;78.82;34.20;;;8.80;69.10;;;;;;5054033;28;20158;-82
2021/03/24 02:41:13;;;;;;;89.18;34.33;;;8.80;69.10;;;;;;5052057;28;20326;-81
2021/03/24 02:43:41;;;;;;;74.43;35.55;;;8.60;69.10;;;;;;5054301;28;20624;-82
2021/03/24 02:46:09;;;;;;;74.20;34.63;;;8.50;69.40;;;;;;5052747;28;20315;-79
2021/03/24 02:48:37;;;;;;;84.40;34.28;;;8.50;69.50;;;;;;5053177;28;20174;-79
2021/03/24 02:51:07;;;;;;;75.70;32.65;;;8.40;69.70;;;;;;5053105;28;20177;-79
2021/03/24 02:53:34;;;;;;;74.00;34.75;;;8.50;69.60;;;;;;5053875;28;20177;-80
2021/03/24 02:56:04;;;;;;;72.55;33.55;;;8.60;69.50;;;;;;5058832;28;20632;-79
2021/03/24 02:58:30;;;;;;;77.80;35.08;;;8.50;69.70;;;;;;5074938;28;20184;-79
2021/03/24 03:00:57;;;;;;;76.75;33.70;;;8.50;69.60;;;;;;5076771;28;20231;-79
2021/03/24 03:03:25;;;;;;;81.97;32.90;;;8.60;69.60;;;;;;5077270;28;20231;-79
2021/03/24 03:05:54;;;;;;;84.65;34.17;;;8.70;69.50;;;;;;5072346;28;20278;-79
2021/03/24 03:08:34;;;;;;;72.00;32.50;;;8.70;69.20;;;;;;5076255;28;20631;-82
2021/03/24 03:11:27;;;;;;;75.53;31.75;;;8.50;69.00;;;;;;5074889;28;20173;-79
2021/03/24 03:13:58;;;;;;;78.25;33.10;;;8.60;69.30;;;;;;5071227;28;20644;-80
2021/03/24 03:16:52;;;;;;;75.15;33.90;;;8.60;69.30;;;;;;5076583;28;20176;-79
2021/03/24 03:19:29;;;;;;;76.18;30.80;;;8.70;69.20;;;;;;5074189;28;20188;-79
2021/03/24 03:22:03;;;;;;;80.75;34.40;;;8.60;68.90;;;;;;5078258;28;20227;-80
2021/03/24 03:24:46;;;;;;;85.18;34.10;;;8.50;69.00;;;;;;5082933;28;20196;-80
2021/03/24 03:27:15;;;;;;;76.07;32.88;;;8.60;69.00;;;;;;5084319;28;20183;-80
2021/03/24 03:29:43;;;;;;;82.20;34.75;;;8.40;69.00;;;;;;5065729;28;20173;-80
2021/03/24 03:32:13;;;;;;;81.25;35.17;;;8.30;69.20;;;;;;5054972;28;20243;-80
2021/03/24 03:34:42;;;;;;;77.55;34.60;;;8.10;69.60;;;;;;5058985;28;20184;-80
2021/03/24 03:37:08;;;;;;;81.93;35.95;;;8.20;70.10;;;;;;5055242;28;20244;-80
2021/03/24 03:39:35;;;;;;;78.18;33.72;;;8.10;70.10;;;;;;5058409;28;20204;-80
2021/03/24 03:42:04;;;;;;;89.13;36.47;;;7.90;70.40;;;;;;5054059;28;20208;-80
2021/03/24 03:44:31;;;;;;;89.05;35.58;;;8.10;70.60;;;;;;5060219;28;20619;-79
2021/03/24 03:47:04;;;;;;;87.05;35.60;;;8.10;70.50;;;;;;5057452;28;20486;-80
2021/03/24 03:49:30;;;;;;;85.63;35.15;;;8.00;70.50;;;;;;5057343;28;20171;-80
2021/03/24 03:52:26;;;;;;;80.68;34.25;;;8.20;70.60;;;;;;5059284;28;20209;-79
2021/03/24 03:55:10;;;;;;;72.72;32.38;;;8.10;70.10;;;;;;5062605;28;20172;-79
2021/03/24 03:57:43;;;;;;;76.10;36.60;;;8.20;69.80;;;;;;5059146;28;20189;-79
2021/03/24 04:00:10;;;;;;;97.63;36.25;;;8.20;69.90;;;;;;5078783;28;20228;-80
2021/03/24 04:02:54;;;;;;;83.13;37.53;;;8.30;69.80;;;;;;5079215;28;20215;-79
2021/03/24 04:05:32;;;;;;;82.43;32.55;;;8.30;69.70;;;;;;5084260;28;20203;-78
2021/03/24 04:08:08;;;;;;;74.93;33.83;;;8.30;69.80;;;;;;5078494;28;20401;-80
2021/03/24 04:10:37;;;;;;;84.38;36.03;;;8.30;69.40;;;;;;5075329;28;20648;-81
2021/03/24 04:13:05;;;;;;;80.18;35.45;;;8.20;69.40;;;;;;5081006;28;20200;-80
2021/03/24 04:15:32;;;;;;;93.03;36.42;;;8.10;69.70;;;;;;5061075;28;20702;-79
2021/03/24 04:18:31;;;;;;;78.10;35.70;;;8.00;69.90;;;;;;5056683;28;20211;-79
2021/03/24 04:20:59;;;;;;;84.63;34.08;;;8.10;69.90;;;;;;5056362;28;20272;-79
2021/03/24 04:23:28;;;;;;;81.22;36.20;;;8.00;69.80;;;;;;5063392;28;20181;-79
2021/03/24 04:26:16;;;;;;;88.03;36.55;;;7.90;70.00;;;;;;5058523;28;20280;-79
2021/03/24 04:28:48;;;;;;;78.45;37.17;;;7.90;70.10;;;;;;5053908;28;20181;-79
2021/03/24 04:31:16;;;;;;;81.97;35.80;;;8.00;70.20;;;;;;5052876;28;20165;-79
2021/03/24 04:33:42;;;;;;;88.15;38.85;;;8.00;69.90;;;;;;5055325;28;20180;-79
2021/03/24 04:36:37;;;;;;;88.13;36.20;;;7.90;69.90;;;;;;5054041;28;20185;-79
2021/03/24 04:39:14;;;;;;;92.55;38.53;;;7.90;70.00;;;;;;5053819;28;20189;-80
2021/03/24 04:41:42;;;;;;;91.38;37.78;;;8.00;70.10;;;;;;5054295;28;20546;-80
2021/03/24 04:44:25;;;;;;;83.13;39.33;;;8.10;69.80;;;;;;5053322;28;20212;-80
2021/03/24 04:46:55;;;;;;;87.03;36.50;;;8.30;69.70;;;;;;5053336;28;20216;-80
2021/03/24 04:49:26;;;;;;;89.82;39.75;;;8.10;69.60;;;;;;5055908;28;20203;-80
2021/03/24 04:51:54;;;;;;;90.63;37.38;;;8.20;69.60;;;;;;5053178;28;20193;-80
2021/03/24 04:54:44;;;;;;;97.18;40.08;;;8.10;69.40;;;;;;5060382;28;20185;-79
2021/03/24 04:57:14;;;;;;;86.82;37.75;;;8.20;69.40;;;;;;5060388;28;20264;-79
2021/03/24 04:59:42;;;;;;;70.03;33.00;;;8.20;69.40;;;;;;5067989;28;20544;-79
2021/03/24 05:02:12;;;;;;;102.95;40.45;;;8.20;69.20;;;;;;5073853;28;20196;-79
2021/03/24 05:04:51;;;;;;;87.28;36.83;;;8.30;69.20;;;;;;5075423;28;20218;-80
2021/03/24 05:07:26;;;;;;;90.88;37.60;;;8.20;68.90;;;;;;5073963;28;20169;-79
2021/03/24 05:09:52;;;;;;;94.22;39.65;;;8.00;68.80;;;;;;5072875;28;20165;-80
2021/03/24 05:12:25;;;;;;;82.97;35.73;;;7.90;69.20;;;;;;5074613;28;20292;-79
2021/03/24 05:15:00;;;;;;;89.50;35.45;;;7.90;69.80;;;;;;5072463;28;20172;-78
2021/03/24 05:17:33;;;;;;;110.30;37.95;;;7.90;69.80;;;;;;5074133;28;20291;-78
2021/03/24 05:20:21;;;;;;;84.15;37.15;;;7.90;70.00;;;;;;5073974;28;20188;-79
2021/03/24 05:22:47;;;;;;;81.57;35.47;;;7.80;69.90;;;;;;5080986;28;20731;-80
2021/03/24 05:25:30;;;;;;;82.37;35.20;;;7.70;70.30;;;;;;5071824;28;20250;-79
2021/03/24 05:28:28;;;;;;;87.97;36.35;;;7.60;70.40;;;;;;5057570;28;20407;-81
2021/03/24 05:30:59;;;;;;;81.07;35.55;;;7.70;70.70;;;;;;5051927;28;20177;-79
2021/03/24 05:33:28;;;;;;;83.10;35.17;;;7.60;70.70;;;;;;5055190;28;20222;-79
2021/03/24 05:35:57;;;;;;;90.90;35.65;;;7.50;70.80;;;;;;5054469;28;20181;-80
2021/03/24 05:38:42;;;;;;;84.03;37.20;;;7.50;71.10;;;;;;5054587;28;20185;-80
2021/03/24 05:41:18;;;;;;;87.85;38.13;;;7.70;71.00;;;;;;5053850;28;20169;-80
2021/03/24 05:44:10;;;;;;;83.38;37.35;;;7.70;71.00;;;;;;5055337;28;20201;-79
2021/03/24 05:46:42;;;;;;;80.25;36.60;;;7.80;70.80;;;;;;5061147;28;20190;-80
2021/03/24 05:49:28;;;;;;;80.32;33.95;;;7.80;70.50;;;;;;5058564;28;20173;-80
2021/03/24 05:52:17;;;;;;;94.68;37.22;;;7.90;70.20;;;;;;5054040;28;20193;-80
2021/03/24 05:55:07;;;;;;;92.20;38.38;;;7.90;70.10;;;;;;5054637;28;20240;-79
2021/03/24 05:57:58;;;;;;;93.60;37.38;;;7.80;70.00;;;;;;5069832;28;20657;-80
2021/03/24 06:00:42;;;;;;;86.85;37.72;;;8.00;70.00;;;;;;5075962;28;20176;-79
2021/03/24 06:03:29;;;;;;;89.18;38.35;;;8.00;69.90;;;;;;5072951;28;20208;-80
2021/03/24 06:06:39;;;;;;;84.60;35.13;;;8.20;69.80;;;;;;5075063;28;20643;-79
2021/03/24 06:09:21;;;;;;;74.15;34.30;;;8.80;68.90;;;;;;5072030;28;20260;-80
2021/03/24 06:12:12;;;;;;;95.78;38.60;;;9.00;66.90;;;;;;5071559;28;20228;-80
2021/03/24 06:14:56;;;;;;;81.13;35.90;;;9.10;66.30;;;;;;5075222;28;20169;-80
2021/03/24 06:17:25;;;;;;;79.15;34.75;;;9.30;65.70;;;;;;5078638;28;20165;-79
2021/03/24 06:20:22;;;;;;;81.88;36.10;;;9.50;64.90;;;;;;5077579;28;20180;-80
2021/03/24 06:23:14;;;;;;;74.47;31.73;;;10.00;63.80;;;;;;5072471;28;20238;-80
2021/03/24 06:26:24;;;;;;;88.35;37.60;;;10.50;61.70;;;;;;5073562;28;20238;-78
2021/03/24 06:28:59;;;;;;;79.03;37.83;;;10.90;59.60;;;;;;5066083;28;20184;-76
2021/03/24 06:31:42;;;;;;;84.32;37.95;;;11.00;57.90;;;;;;5071679;28;20192;-76
2021/03/24 06:34:28;;;;;;;84.30;38.65;;;10.50;57.60;;;;;;5072603;28;20176;-76
2021/03/24 06:37:26;;;;;;;73.10;36.00;;;10.20;58.40;;;;;;5051391;28;20188;-76
2021/03/24 06:40:10;;;;;;;66.65;34.22;;;9.60;60.30;;;;;;5037892;28;20234;-76
2021/03/24 06:42:57;;;;;;;70.40;33.28;;;9.10;61.90;;;;;;5070329;28;20211;-76
2021/03/24 06:46:00;;;;;;;77.32;37.30;;;9.10;63.10;;;;;;5072256;28;20204;-76
2021/03/24 06:49:10;;;;;;;76.65;33.20;;;8.60;64.30;;;;;;5072035;28;20169;-76
2021/03/24 06:52:04;;;;;;;82.13;34.83;;;8.60;65.60;;;;;;5070104;28;20647;-76
2021/03/24 06:54:48;;;;;;;71.10;33.35;;;8.50;66.20;;;;;;5070918;28;20260;-78
2021/03/24 06:57:46;;;;;;;71.43;32.70;;;8.40;66.90;;;;;;5072893;28;20196;-76
2021/03/24 07:00:48;;;;;;;75.90;32.47;;;8.30;67.30;;;;;;5046656;28;20193;-76
2021/03/24 07:03:52;;;;;;;72.55;36.55;;;8.10;67.80;;;;;;5036034;28;20205;-76
2021/03/24 07:06:52;;;;;;;77.05;36.45;;;8.20;68.00;;;;;;5005569;28;20201;-76
2021/03/24 07:09:40;;;;;;;81.15;35.90;;;8.10;68.20;;;;;;5055744;28;20158;-79
2021/03/24 07:12:15;;;;;;;77.18;33.28;;;8.50;68.10;;;;;;5055135;28;20189;-78
2021/03/24 07:15:19;;;;;;;87.32;37.00;;;8.70;67.60;;;;;;5054259;28;20181;-78
2021/03/24 07:18:21;;;;;;;69.07;35.33;;;9.10;67.00;;;;;;5054658;28;20179;-78
2021/03/24 07:20:59;;;;;;;81.65;32.85;;;9.20;65.90;;;;;;5055055;28;20509;-78
2021/03/24 07:23:46;;;;;;;77.20;35.95;;;9.30;65.80;;;;;;5053770;28;20211;-78
2021/03/24 07:26:14;;;;;;;79.47;33.95;;;9.50;65.20;;;;;;5055849;28;20211;-78
2021/03/24 07:29:16;;;;;;;72.50;32.50;;;9.30;65.40;;;;;;5054719;28;20268;-77
2021/03/24 07:31:50;;;;;;;82.18;35.10;;;9.00;65.40;;;;;;5053900;28;20189;-79
2021/03/24 07:34:47;;;;;;;79.97;34.58;;;9.00;65.90;;;;;;5054001;28;20318;-78
2021/03/24 07:37:20;;;;;;;70.85;32.45;;;9.10;66.00;;;;;;5054690;28;20177;-78
2021/03/24 07:40:16;;;;;;;72.50;33.72;;;9.20;66.00;;;;;;5054851;28;20173;-79
2021/03/24 07:43:17;;;;;;;74.22;35.38;;;9.40;65.70;;;;;;5054481;28;20212;-78
2021/03/24 07:45:45;;;;;;;73.95;32.78;;;9.50;65.50;;;;;;5055165;28;20191;-78
2021/03/24 07:48:30;;;;;;;64.97;32.85;;;9.50;65.10;;;;;;5054344;28;20180;-77
2021/03/24 07:51:06;;;;;;;79.40;33.33;;;9.60;65.20;;;;;;5054517;28;20161;-78
2021/03/24 07:53:52;;;;;;;83.20;34.03;;;9.80;64.80;;;;;;5054915;28;20204;-78
2021/03/24 07:56:21;;;;;;;68.43;33.50;;;9.80;64.40;;;;;;5054172;28;20185;-78
2021/03/24 07:59:10;;;;;;;67.05;30.55;;;10.10;64.40;;;;;;5057495;28;20175;-77
2021/03/24 08:01:52;;;;;;;71.10;30.38;;;10.30;63.90;;;;;;5074445;28;20204;-79
2021/03/24 08:04:48;;;;;;;71.50;32.25;;;10.40;63.30;;;;;;5074805;28;20200;-78
2021/03/24 08:07:23;;;;;;;65.50;31.08;;;10.70;63.10;;;;;;5072232;28;20221;-79
2021/03/24 08:10:14;;;;;;;63.00;29.45;;;10.50;62.70;;;;;;5074585;28;20169;-79
2021/03/24 08:12:58;;;;;;;82.40;30.77;;;10.60;62.50;;;;;;5072583;28;20231;-78
2021/03/24 08:15:51;;;;;;;58.45;29.17;;;10.70;62.30;;;;;;5075417;28;20176;-78
2021/03/24 08:18:44;;;;;;;74.90;31.42;;;10.80;62.00;;;;;;5075452;28;20506;-79
2021/03/24 08:21:23;;;;;;;65.68;30.75;;;10.90;61.80;;;;;;5075398;28;20165;-79
2021/03/24 08:24:18;;;;;;;67.75;30.73;;;10.70;61.20;;;;;;5075084;28;20190;-79
2021/03/24 08:26:57;;;;;;;66.80;31.17;;;10.90;61.40;;;;;;5061106;28;20259;-79
2021/03/24 08:29:51;;;;;;;59.47;30.27;;;11.00;61.20;;;;;;5074859;28;20531;-80
2021/03/24 08:32:29;;;;;;;76.20;32.67;;;11.10;60.70;;;;;;5074652;28;20195;-79
2021/03/24 08:34:57;;;;;;;83.53;30.65;;;10.80;60.50;;;;;;5073836;28;20281;-80
2021/03/24 08:37:54;;;;;;;72.13;31.73;;;10.60;61.30;;;;;;5074797;28;20213;-79
2021/03/24 08:40:56;;;;;;;58.45;30.48;;;10.70;61.80;;;;;;5075574;28;20196;-80
2021/03/24 08:43:28;;;;;;;58.42;28.13;;;10.80;61.40;;;;;;5076524;28;20212;-79
2021/03/24 08:46:17;;;;;;;66.25;31.98;;;11.20;61.00;;;;;;5075711;28;20538;-79
2021/03/24 08:48:43;;;;;;;65.70;29.75;;;11.00;60.60;;;;;;5075184;28;20180;-79
2021/03/24 08:51:26;;;;;;;57.70;29.25;;;10.80;60.80;;;;;;5073673;28;20181;-80
2021/03/24 08:54:19;;;;;;;61.58;29.63;;;11.10;61.00;;;;;;5074655;28;20172;-78
2021/03/24 08:57:11;;;;;;;57.75;26.70;;;11.40;60.80;;;;;;5073393;28;20200;-79
2021/03/24 08:59:41;;;;;;;54.00;29.10;;;10.90;60.70;;;;;;5072900;28;20233;-79
2021/03/24 09:02:34;;;;;;;58.60;28.63;;;11.00;61.10;;;;;;5073435;28;20200;-77
2021/03/24 09:05:20;;;;;;;66.95;29.77;;;11.20;60.60;;;;;;5072096;28;20262;-77
2021/03/24 09:07:47;;;;;;;65.38;28.48;;;11.50;60.50;;;;;;5071788;28;20227;-77
2021/03/24 09:10:38;;;;;;;57.70;27.95;;;11.10;60.60;;;;;;5071907;28;20184;-77
2021/03/24 09:13:13;;;;;;;59.88;26.42;;;11.50;60.90;;;;;;5074565;28;20195;-78
2021/03/24 09:16:05;;;;;;;58.10;27.45;;;11.50;60.00;;;;;;5073434;28;20210;-77
2021/03/24 09:18:42;;;;;;;68.60;27.52;;;11.50;60.10;;;;;;5071283;28;20172;-77
2021/03/24 09:21:33;;;;;;;53.28;25.02;;;11.50;59.70;;;;;;5072955;28;20377;-80
2021/03/24 09:24:23;;;;;;;57.35;23.02;;;11.50;59.80;;;;;;5072682;28;20204;-80
2021/03/24 09:26:57;;;;;;;59.90;24.95;;;11.60;58.80;;;;;;5072688;28;20231;-79
2021/03/24 09:29:44;;;;;;;51.83;22.90;;;11.60;58.70;;;;;;5073170;28;20527;-79
2021/03/24 09:32:35;;;;;;;48.75;23.83;;;11.90;58.70;;;;;;5073833;28;20205;-80
2021/03/24 09:35:15;;;;;;;50.63;25.00;;;12.20;58.10;;;;;;5074475;28;20180;-80
2021/03/24 09:38:17;;;;;;;54.58;24.13;;;12.20;57.20;;;;;;5074339;28;20251;-80
2021/03/24 09:40:46;;;;;;;58.00;24.35;;;12.40;57.10;;;;;;5062103;28;20535;-81
2021/03/24 09:43:26;;;;;;;45.75;21.60;;;12.50;56.70;;;;;;5073308;28;20216;-79
2021/03/24 09:46:06;;;;;;;50.70;25.70;;;12.60;56.60;;;;;;5073909;28;20499;-81
2021/03/24 09:48:54;;;;;;;51.35;24.08;;;12.50;56.20;;;;;;5073752;28;20165;-80
2021/03/24 09:51:24;;;;;;;46.90;23.88;;;12.90;56.30;;;;;;5071885;28;20224;-79
2021/03/24 09:53:51;;;;;;;53.67;22.75;;;12.90;56.10;;;;;;5073336;28;20473;-79
2021/03/24 09:56:22;;;;;;;60.00;25.40;;;12.90;55.80;;;;;;5066586;28;20203;-79
2021/03/24 09:59:14;;;;;;;47.67;23.63;;;13.00;55.50;;;;;;5056542;28;20172;-79
2021/03/24 10:01:54;;;;;;;45.08;21.75;;;13.00;55.40;;;;;;5072671;28;20628;-78
2021/03/24 10:04:42;;;;;;;45.75;22.30;;;13.00;55.10;;;;;;5063950;28;20197;-79
2021/03/24 10:07:18;;;;;;;43.70;23.25;;;13.20;54.80;;;;;;5052482;28;20177;-80
2021/03/24 10:10:12;;;;;;;46.28;24.20;;;13.10;54.80;;;;;;5052143;28;20545;-78
2021/03/24 10:12:53;;;;;;;44.03;21.33;;;13.20;55.00;;;;;;5053603;28;20197;-79
2021/03/24 10:15:25;;;;;;;47.85;21.65;;;13.20;54.50;;;;;;5055505;28;20244;-80
2021/03/24 10:18:09;;;;;;;47.65;23.08;;;13.20;54.30;;;;;;5051977;28;20170;-79
2021/03/24 10:20:54;;;;;;;43.90;22.25;;;13.10;54.20;;;;;;5052710;28;20663;-80
2021/03/24 10:23:39;;;;;;;34.65;20.60;;;13.30;54.20;;;;;;5051539;28;20200;-79
2021/03/24 10:26:11;;;;;;;40.28;21.65;;;13.40;53.40;;;;;;5052895;28;20559;-78
2021/03/24 10:28:47;;;;;;;41.53;21.90;;;13.70;53.00;;;;;;5051415;28;20199;-80
2021/03/24 10:31:22;;;;;;;46.22;21.95;;;13.60;52.50;;;;;;5055722;28;20639;-78
2021/03/24 10:33:57;;;;;;;41.67;22.17;;;13.60;52.50;;;;;;5055604;28;20191;-79
2021/03/24 10:36:45;;;;;;;36.03;20.48;;;13.50;52.40;;;;;;5056927;28;20157;-79
2021/03/24 10:39:37;;;;;;;41.35;22.90;;;13.70;52.80;;;;;;5055501;28;20215;-79
2021/03/24 10:42:15;;;;;;;39.47;19.83;;;13.80;52.60;;;;;;5056047;28;20205;-79
2021/03/24 10:44:54;;;;;;;41.88;20.58;;;14.00;52.50;;;;;;5055758;28;20200;-79
2021/03/24 10:47:32;;;;;;;40.00;20.85;;;14.10;51.50;;;;;;5056802;28;20222;-79
2021/03/24 10:50:23;;;;;;;38.60;21.17;;;14.20;51.30;;;;;;5055817;28;20188;-79
2021/03/24 10:53:24;;;;;;;44.72;20.48;;;14.30;50.90;;;;;;5057109;28;20189;-79
2021/03/24 10:56:16;;;;;;;32.83;19.35;;;14.40;50.30;;;;;;5061029;28;20211;-79
2021/03/24 10:59:18;;;;;;;48.50;22.08;;;14.30;50.20;;;;;;5072456;28;20181;-79
2021/03/24 11:02:26;;;;;;;39.63;20.38;;;14.40;49.60;;;;;;5054595;28;20192;-78
2021/03/24 11:05:09;;;;;;;39.72;20.02;;;14.40;49.60;;;;;;5055138;28;20272;-79
2021/03/24 11:07:42;;;;;;;38.65;20.73;;;14.50;49.60;;;;;;5056810;28;20238;-79
2021/03/24 11:10:11;;;;;;;45.53;20.33;;;14.60;49.60;;;;;;5056748;28;20154;-80
2021/03/24 11:12:48;;;;;;;39.58;19.17;;;14.70;49.30;;;;;;5058603;28;20189;-79
2021/03/24 11:15:22;;;;;;;38.28;18.52;;;14.60;49.10;;;;;;5054836;28;20644;-79
2021/03/24 11:18:02;;;;;;;29.15;17.83;;;14.60;48.90;;;;;;5054932;28;20211;-79
2021/03/24 11:20:43;;;;;;;36.00;18.92;;;14.70;48.70;;;;;;5054131;28;20377;-79
2021/03/24 11:23:18;;;;;;;36.55;18.13;;;14.70;48.40;;;;;;5056129;28;20304;-78
2021/03/24 11:25:53;;;;;;;35.67;18.40;;;14.60;48.20;;;;;;5061161;28;20208;-79
2021/03/24 11:28:35;;;;;;;36.50;19.27;;;14.60;48.30;;;;;;5055717;28;20532;-79
2021/03/24 11:31:13;;;;;;;36.60;18.90;;;14.60;47.90;;;;;;5075830;28;20230;-80
2021/03/24 11:33:41;;;;;;;38.38;19.30;;;14.80;48.20;;;;;;5076479;28;20157;-80
2021/03/24 11:36:10;;;;;;;44.33;19.63;;;14.80;47.90;;;;;;5075204;28;20655;-80
2021/03/24 11:38:42;;;;;;;39.30;20.30;;;14.80;48.10;;;;;;5077276;28;20636;-80
2021/03/24 11:41:13;;;;;;;38.17;18.13;;;14.80;48.20;;;;;;5070908;28;20180;-80
2021/03/24 11:43:43;;;;;;;39.22;18.70;;;14.70;48.30;;;;;;5055191;28;20272;-80
2021/03/24 11:46:25;;;;;;;48.63;19.92;;;14.60;49.50;;;;;;5060446;28;20187;-80
2021/03/24 11:49:11;;;;;;;34.50;18.88;;;14.60;48.90;;;;;;5079718;28;20164;-79
2021/03/24 11:52:27;;;;;;;40.00;17.58;;;14.50;49.00;;;;;;5074697;28;20216;-80
2021/03/24 11:55:02;;;;;;;43.65;19.00;;;14.60;49.40;;;;;;5071187;28;20184;-80
2021/03/24 11:57:46;;;;;;;37.75;19.35;;;14.60;49.20;;;;;;5074448;28;20237;-79
2021/03/24 12:00:41;;;;;;;35.78;17.33;;;14.80;48.90;;;;;;5075857;28;20225;-80
2021/03/24 12:03:39;;;;;;;37.95;18.45;;;14.80;49.60;;;;;;5075130;28;20216;-80
2021/03/24 12:06:11;;;;;;;32.42;17.90;;;15.10;50.00;;;;;;5074609;28;20628;-80
2021/03/24 12:08:59;;;;;;;39.28;18.58;;;15.10;48.10;;;;;;5074767;28;20529;-80
2021/03/24 12:11:31;;;;;;;34.03;17.98;;;15.00;47.30;;;;;;5084230;28;20188;-80
2021/03/24 12:14:15;;;;;;;37.90;19.70;;;15.10;48.00;;;;;;5076342;28;20580;-81
2021/03/24 12:16:42;;;;;;;38.25;16.85;;;15.00;48.10;;;;;;5074523;28;20177;-80
2021/03/24 12:19:32;;;;;;;41.85;20.80;;;15.00;49.30;;;;;;5074105;28;20188;-80
2021/03/24 12:22:18;;;;;;;31.38;18.10;;;15.00;48.50;;;;;;5074978;28;20193;-80
2021/03/24 12:24:45;;;;;;;35.63;18.50;;;15.20;47.70;;;;;;5032668;28;20278;-80
2021/03/24 12:27:16;;;;;;;34.92;19.27;;;15.30;48.90;;;;;;5053885;28;20180;-80
2021/03/24 12:29:44;;;;;;;35.45;17.85;;;15.30;48.10;;;;;;5053746;28;20234;-78
2021/03/24 12:32:22;;;;;;;40.55;19.15;;;15.50;48.00;;;;;;5054530;28;20193;-80
2021/03/24 12:34:49;;;;;;;38.95;18.85;;;15.70;48.90;;;;;;5053965;28;20181;-80
2021/03/24 12:37:37;;;;;;;40.65;19.08;;;15.70;47.30;;;;;;5054289;28;20239;-80
2021/03/24 12:40:10;;;;;;;34.53;18.45;;;15.90;48.20;;;;;;5057078;28;20605;-80
2021/03/24 12:42:36;;;;;;;31.15;16.48;;;16.00;48.20;;;;;;5054265;28;20257;-80
2021/03/24 12:45:23;;;;;;;40.05;18.45;;;15.80;46.70;;;;;;5053823;28;20209;-81
2021/03/24 12:47:50;;;;;;;34.47;16.40;;;16.00;46.10;;;;;;5054871;28;20180;-80
2021/03/24 12:50:27;;;;;;;39.60;18.45;;;16.10;46.60;;;;;;5054702;28;20581;-80
2021/03/24 12:53:21;;;;;;;42.42;19.10;;;16.10;45.30;;;;;;5054234;28;20730;-80
2021/03/24 12:55:52;;;;;;;35.38;16.80;;;15.90;45.20;;;;;;5073468;28;20768;-79
2021/03/24 12:58:38;;;;;;;33.20;16.00;;;16.00;45.50;;;;;;5074378;28;20175;-81
2021/03/24 13:01:25;;;;;;;28.52;16.70;;;16.00;44.60;;;;;;5072406;28;20294;-81
2021/03/24 13:04:11;;;;;;;33.15;15.60;;;15.70;43.70;;;;;;5073236;28;20203;-80
2021/03/24 13:06:43;;;;;;;33.03;16.90;;;15.90;43.70;;;;;;5073623;28;20181;-80
2021/03/24 13:09:31;;;;;;;37.22;17.60;;;16.00;43.30;;;;;;5076838;28;20172;-80
2021/03/24 13:12:18;;;;;;;29.92;16.40;;;15.80;43.50;;;;;;5080013;28;20184;-80
2021/03/24 13:15:11;;;;;;;28.92;15.88;;;15.70;44.20;;;;;;5073623;28;20222;-80
2021/03/24 13:18:08;;;;;;;34.92;17.23;;;16.00;44.00;;;;;;5072895;28;20176;-80
2021/03/24 13:21:19;;;;;;;34.58;16.80;;;16.10;43.80;;;;;;5044881;28;20191;-80
2021/03/24 13:23:47;;;;;;;31.75;17.20;;;15.90;43.30;;;;;;5068926;28;20196;-80
2021/03/24 13:26:34;;;;;;;32.55;18.52;;;15.70;43.70;;;;;;5072515;28;20176;-80
2021/03/24 13:29:24;;;;;;;29.13;15.80;;;15.60;43.90;;;;;;5071061;28;20177;-80
2021/03/24 13:32:35;;;;;;;29.60;14.55;;;16.00;43.60;;;;;;5060686;28;20266;-80